sensor_id;sensor_type;location;lat;lon;timestamp;P1;durP1;ratioP1;P2;durP2;ratioP2
35056;SDS011;21241;51.828;19.574;2023-08-30T00:00:32;34.20;;;30.50;;
35056;SDS011;21241;51.828;19.574;2023-08-30T00:03:20;33.30;;;30.00;;
35056;SDS011;21241;51.828;19.574;2023-08-30T00:05:48;33.70;;;30.10;;
35056;SDS011;21241;51.828;19.574;2023-08-30T00:08:15;34.50;;;30.80;;
35056;SDS011;21241;51.828;19.574;2023-08-30T00:10:45;34.70;;;31.20;;
35056;SDS011;21241;51.828;19.574;2023-08-30T00:13:13;38.20;;;31.70;;
35056;SDS011;21241;51.828;19.574;2023-08-30T00:15:41;41.00;;;34.00;;
35056;SDS011;21241;51.828;19.574;2023-08-30T00:18:09;43.30;;;35.80;;
35056;SDS011;21241;51.828;19.574;2023-08-30T00:20:38;43.40;;;35.20;;
35056;SDS011;21241;51.828;19.574;2023-08-30T00:23:05;47.70;;;36.50;;
35056;SDS011;21241;51.828;19.574;2023-08-30T00:25:33;44.30;;;36.30;;
35056;SDS011;21241;51.828;19.574;2023-08-30T00:28:01;44.20;;;33.80;;
35056;SDS011;21241;51.828;19.574;2023-08-30T00:30:29;45.30;;;35.30;;
35056;SDS011;21241;51.828;19.574;2023-08-30T00:32:56;40.30;;;33.10;;
35056;SDS011;21241;51.828;19.574;2023-08-30T00:35:24;41.30;;;33.70;;
35056;SDS011;21241;51.828;19.574;2023-08-30T00:37:52;40.80;;;32.50;;
35056;SDS011;21241;51.828;19.574;2023-08-30T00:40:22;35.40;;;31.20;;
35056;SDS011;21241;51.828;19.574;2023-08-30T00:42:54;29.30;;;25.10;;
35056;SDS011;21241;51.828;19.574;2023-08-30T00:45:22;25.00;;;22.30;;
35056;SDS011;21241;51.828;19.574;2023-08-30T00:47:49;24.20;;;21.60;;
35056;SDS011;21241;51.828;19.574;2023-08-30T00:50:18;25.70;;;23.00;;
35056;SDS011;21241;51.828;19.574;2023-08-30T00:52:45;24.50;;;21.90;;
35056;SDS011;21241;51.828;19.574;2023-08-30T00:55:13;25.40;;;22.90;;
35056;SDS011;21241;51.828;19.574;2023-08-30T00:57:42;24.10;;;21.50;;
35056;SDS011;21241;51.828;19.574;2023-08-30T01:00:13;26.20;;;23.60;;
35056;SDS011;21241;51.828;19.574;2023-08-30T01:02:41;24.10;;;21.70;;
35056;SDS011;21241;51.828;19.574;2023-08-30T01:05:09;23.60;;;21.20;;
35056;SDS011;21241;51.828;19.574;2023-08-30T01:07:37;24.20;;;21.60;;
35056;SDS011;21241;51.828;19.574;2023-08-30T01:10:05;24.70;;;22.20;;
35056;SDS011;21241;51.828;19.574;2023-08-30T01:12:39;23.80;;;21.50;;
35056;SDS011;21241;51.828;19.574;2023-08-30T01:15:09;23.10;;;20.70;;
35056;SDS011;21241;51.828;19.574;2023-08-30T01:17:39;23.30;;;20.90;;
35056;SDS011;21241;51.828;19.574;2023-08-30T01:20:10;23.30;;;20.90;;
35056;SDS011;21241;51.828;19.574;2023-08-30T01:22:53;23.90;;;21.40;;
35056;SDS011;21241;51.828;19.574;2023-08-30T01:25:55;23.00;;;20.30;;
35056;SDS011;21241;51.828;19.574;2023-08-30T01:28:29;24.10;;;21.50;;
35056;SDS011;21241;51.828;19.574;2023-08-30T01:30:58;23.90;;;20.80;;
35056;SDS011;21241;51.828;19.574;2023-08-30T01:33:28;23.20;;;19.90;;
35056;SDS011;21241;51.828;19.574;2023-08-30T01:35:58;21.60;;;18.90;;
35056;SDS011;21241;51.828;19.574;2023-08-30T01:38:27;21.40;;;19.10;;
35056;SDS011;21241;51.828;19.574;2023-08-30T01:40:59;20.10;;;17.80;;
35056;SDS011;21241;51.828;19.574;2023-08-30T01:43:30;19.00;;;16.80;;
35056;SDS011;21241;51.828;19.574;2023-08-30T01:45:58;19.60;;;17.40;;
35056;SDS011;21241;51.828;19.574;2023-08-30T01:48:29;19.50;;;16.70;;
35056;SDS011;21241;51.828;19.574;2023-08-30T01:50:57;18.90;;;16.80;;
35056;SDS011;21241;51.828;19.574;2023-08-30T01:53:28;19.10;;;17.10;;
35056;SDS011;21241;51.828;19.574;2023-08-30T01:55:56;18.50;;;16.60;;
35056;SDS011;21241;51.828;19.574;2023-08-30T01:58:25;19.50;;;16.70;;
35056;SDS011;21241;51.828;19.574;2023-08-30T02:00:53;19.00;;;17.00;;
35056;SDS011;21241;51.828;19.574;2023-08-30T02:03:23;19.30;;;17.10;;
35056;SDS011;21241;51.828;19.574;2023-08-30T02:08:41;18.30;;;16.40;;
35056;SDS011;21241;51.828;19.574;2023-08-30T02:11:19;18.40;;;16.50;;
35056;SDS011;21241;51.828;19.574;2023-08-30T02:13:51;20.40;;;17.50;;
35056;SDS011;21241;51.828;19.574;2023-08-30T02:16:21;17.80;;;15.60;;
35056;SDS011;21241;51.828;19.574;2023-08-30T02:18:51;19.10;;;16.80;;
35056;SDS011;21241;51.828;19.574;2023-08-30T02:21:19;18.70;;;16.80;;
35056;SDS011;21241;51.828;19.574;2023-08-30T02:23:50;17.50;;;15.60;;
35056;SDS011;21241;51.828;19.574;2023-08-30T02:26:19;18.90;;;16.90;;
35056;SDS011;21241;51.828;19.574;2023-08-30T02:28:47;18.40;;;16.50;;
35056;SDS011;21241;51.828;19.574;2023-08-30T02:31:15;18.10;;;15.50;;
35056;SDS011;21241;51.828;19.574;2023-08-30T02:33:45;19.50;;;16.90;;
35056;SDS011;21241;51.828;19.574;2023-08-30T02:36:13;18.50;;;15.60;;
35056;SDS011;21241;51.828;19.574;2023-08-30T02:38:41;20.30;;;16.60;;
35056;SDS011;21241;51.828;19.574;2023-08-30T02:41:09;18.20;;;16.10;;
35056;SDS011;21241;51.828;19.574;2023-08-30T02:43:37;17.80;;;15.80;;
35056;SDS011;21241;51.828;19.574;2023-08-30T02:46:07;17.40;;;15.60;;
35056;SDS011;21241;51.828;19.574;2023-08-30T02:48:34;17.50;;;15.60;;
35056;SDS011;21241;51.828;19.574;2023-08-30T02:51:02;17.90;;;16.10;;
35056;SDS011;21241;51.828;19.574;2023-08-30T02:53:30;19.30;;;17.20;;
35056;SDS011;21241;51.828;19.574;2023-08-30T02:55:58;18.20;;;16.30;;
35056;SDS011;21241;51.828;19.574;2023-08-30T02:58:26;19.20;;;17.20;;
35056;SDS011;21241;51.828;19.574;2023-08-30T03:00:59;18.50;;;16.60;;
35056;SDS011;21241;51.828;19.574;2023-08-30T03:03:27;18.30;;;16.40;;
35056;SDS011;21241;51.828;19.574;2023-08-30T03:05:56;20.50;;;18.40;;
35056;SDS011;21241;51.828;19.574;2023-08-30T03:08:24;20.50;;;18.20;;
35056;SDS011;21241;51.828;19.574;2023-08-30T03:10:52;20.40;;;18.30;;
35056;SDS011;21241;51.828;19.574;2023-08-30T03:13:21;21.30;;;19.10;;
35056;SDS011;21241;51.828;19.574;2023-08-30T03:15:49;24.80;;;19.40;;
35056;SDS011;21241;51.828;19.574;2023-08-30T03:18:17;24.00;;;19.10;;
35056;SDS011;21241;51.828;19.574;2023-08-30T03:20:45;26.70;;;20.80;;
35056;SDS011;21241;51.828;19.574;2023-08-30T03:23:12;28.00;;;22.00;;
35056;SDS011;21241;51.828;19.574;2023-08-30T03:25:40;28.30;;;22.80;;
35056;SDS011;21241;51.828;19.574;2023-08-30T03:28:08;30.60;;;24.00;;
35056;SDS011;21241;51.828;19.574;2023-08-30T03:30:36;29.60;;;23.20;;
35056;SDS011;21241;51.828;19.574;2023-08-30T03:33:04;33.50;;;24.80;;
35056;SDS011;21241;51.828;19.574;2023-08-30T03:35:33;34.00;;;25.90;;
35056;SDS011;21241;51.828;19.574;2023-08-30T03:38:02;37.40;;;28.40;;
35056;SDS011;21241;51.828;19.574;2023-08-30T03:40:30;40.50;;;28.20;;
35056;SDS011;21241;51.828;19.574;2023-08-30T03:42:58;42.20;;;31.00;;
35056;SDS011;21241;51.828;19.574;2023-08-30T03:45:27;46.40;;;30.80;;
35056;SDS011;21241;51.828;19.574;2023-08-30T03:47:55;46.90;;;32.10;;
35056;SDS011;21241;51.828;19.574;2023-08-30T03:50:22;53.30;;;34.70;;
35056;SDS011;21241;51.828;19.574;2023-08-30T03:52:50;51.90;;;33.80;;
35056;SDS011;21241;51.828;19.574;2023-08-30T03:55:18;57.30;;;37.30;;
35056;SDS011;21241;51.828;19.574;2023-08-30T03:57:46;54.30;;;35.40;;
35056;SDS011;21241;51.828;19.574;2023-08-30T04:00:13;61.00;;;37.70;;
35056;SDS011;21241;51.828;19.574;2023-08-30T04:02:41;61.70;;;39.10;;
35056;SDS011;21241;51.828;19.574;2023-08-30T04:05:09;67.40;;;39.80;;
35056;SDS011;21241;51.828;19.574;2023-08-30T04:07:38;67.40;;;40.90;;
35056;SDS011;21241;51.828;19.574;2023-08-30T04:10:06;69.00;;;42.30;;
35056;SDS011;21241;51.828;19.574;2023-08-30T04:12:35;78.30;;;41.30;;
35056;SDS011;21241;51.828;19.574;2023-08-30T04:15:03;74.20;;;40.90;;
35056;SDS011;21241;51.828;19.574;2023-08-30T04:17:31;74.80;;;43.70;;
35056;SDS011;21241;51.828;19.574;2023-08-30T04:20:00;77.90;;;44.00;;
35056;SDS011;21241;51.828;19.574;2023-08-30T04:22:32;79.60;;;43.50;;
35056;SDS011;21241;51.828;19.574;2023-08-30T04:25:03;71.30;;;43.50;;
35056;SDS011;21241;51.828;19.574;2023-08-30T04:27:31;78.10;;;43.50;;
35056;SDS011;21241;51.828;19.574;2023-08-30T04:29:59;77.10;;;45.90;;
35056;SDS011;21241;51.828;19.574;2023-08-30T04:32:27;87.30;;;47.70;;
35056;SDS011;21241;51.828;19.574;2023-08-30T04:34:55;86.30;;;47.10;;
35056;SDS011;21241;51.828;19.574;2023-08-30T04:37:22;93.00;;;50.00;;
35056;SDS011;21241;51.828;19.574;2023-08-30T04:39:50;94.20;;;49.80;;
35056;SDS011;21241;51.828;19.574;2023-08-30T04:42:18;94.00;;;47.80;;
35056;SDS011;21241;51.828;19.574;2023-08-30T04:44:46;99.80;;;48.50;;
35056;SDS011;21241;51.828;19.574;2023-08-30T04:47:13;94.90;;;49.20;;
35056;SDS011;21241;51.828;19.574;2023-08-30T04:49:42;100.70;;;51.50;;
35056;SDS011;21241;51.828;19.574;2023-08-30T04:52:09;106.20;;;52.10;;
35056;SDS011;21241;51.828;19.574;2023-08-30T04:54:37;112.80;;;52.90;;
35056;SDS011;21241;51.828;19.574;2023-08-30T04:57:05;119.20;;;54.70;;
35056;SDS011;21241;51.828;19.574;2023-08-30T04:59:34;119.30;;;54.60;;
35056;SDS011;21241;51.828;19.574;2023-08-30T05:02:02;118.30;;;54.70;;
35056;SDS011;21241;51.828;19.574;2023-08-30T05:04:32;113.20;;;54.20;;
35056;SDS011;21241;51.828;19.574;2023-08-30T05:07:00;110.60;;;50.80;;
35056;SDS011;21241;51.828;19.574;2023-08-30T05:09:28;98.40;;;47.10;;
35056;SDS011;21241;51.828;19.574;2023-08-30T05:11:56;96.50;;;48.10;;
35056;SDS011;21241;51.828;19.574;2023-08-30T05:14:24;94.90;;;47.00;;
35056;SDS011;21241;51.828;19.574;2023-08-30T05:16:52;100.50;;;48.10;;
35056;SDS011;21241;51.828;19.574;2023-08-30T05:19:20;99.30;;;48.10;;
35056;SDS011;21241;51.828;19.574;2023-08-30T05:21:49;108.80;;;47.40;;
35056;SDS011;21241;51.828;19.574;2023-08-30T05:24:22;98.50;;;47.80;;
35056;SDS011;21241;51.828;19.574;2023-08-30T05:26:50;106.50;;;49.50;;
35056;SDS011;21241;51.828;19.574;2023-08-30T05:29:18;102.40;;;47.50;;
35056;SDS011;21241;51.828;19.574;2023-08-30T05:31:46;106.40;;;46.80;;
35056;SDS011;21241;51.828;19.574;2023-08-30T05:34:45;103.10;;;47.10;;
35056;SDS011;21241;51.828;19.574;2023-08-30T05:37:31;103.80;;;46.10;;
35056;SDS011;21241;51.828;19.574;2023-08-30T05:40:04;124.00;;;48.30;;
35056;SDS011;21241;51.828;19.574;2023-08-30T05:42:33;105.60;;;47.60;;
35056;SDS011;21241;51.828;19.574;2023-08-30T05:45:00;106.50;;;46.80;;
35056;SDS011;21241;51.828;19.574;2023-08-30T05:47:28;97.80;;;44.10;;
35056;SDS011;21241;51.828;19.574;2023-08-30T05:49:56;102.30;;;45.00;;
35056;SDS011;21241;51.828;19.574;2023-08-30T05:52:25;99.50;;;43.60;;
35056;SDS011;21241;51.828;19.574;2023-08-30T05:54:53;93.70;;;43.50;;
35056;SDS011;21241;51.828;19.574;2023-08-30T05:57:21;95.10;;;42.50;;
35056;SDS011;21241;51.828;19.574;2023-08-30T05:59:51;98.90;;;43.00;;
35056;SDS011;21241;51.828;19.574;2023-08-30T06:02:19;94.50;;;42.20;;
35056;SDS011;21241;51.828;19.574;2023-08-30T06:04:46;93.30;;;42.00;;
35056;SDS011;21241;51.828;19.574;2023-08-30T06:07:14;82.80;;;40.50;;
35056;SDS011;21241;51.828;19.574;2023-08-30T06:09:42;78.00;;;37.10;;
35056;SDS011;21241;51.828;19.574;2023-08-30T06:12:11;72.70;;;36.80;;
35056;SDS011;21241;51.828;19.574;2023-08-30T06:14:39;65.50;;;34.90;;
35056;SDS011;21241;51.828;19.574;2023-08-30T06:17:07;66.70;;;36.30;;
35056;SDS011;21241;51.828;19.574;2023-08-30T06:19:35;69.20;;;36.30;;
35056;SDS011;21241;51.828;19.574;2023-08-30T06:22:02;60.90;;;34.90;;
35056;SDS011;21241;51.828;19.574;2023-08-30T06:24:30;60.60;;;35.60;;
35056;SDS011;21241;51.828;19.574;2023-08-30T06:26:58;63.90;;;35.90;;
35056;SDS011;21241;51.828;19.574;2023-08-30T06:29:27;63.90;;;35.90;;
35056;SDS011;21241;51.828;19.574;2023-08-30T06:31:55;63.20;;;35.90;;
35056;SDS011;21241;51.828;19.574;2023-08-30T06:34:23;62.00;;;35.10;;
35056;SDS011;21241;51.828;19.574;2023-08-30T06:36:51;63.20;;;35.20;;
35056;SDS011;21241;51.828;19.574;2023-08-30T06:39:18;57.90;;;32.50;;
35056;SDS011;21241;51.828;19.574;2023-08-30T06:41:46;55.80;;;32.70;;
35056;SDS011;21241;51.828;19.574;2023-08-30T06:44:14;54.50;;;32.50;;
35056;SDS011;21241;51.828;19.574;2023-08-30T06:46:43;53.70;;;32.00;;
35056;SDS011;21241;51.828;19.574;2023-08-30T06:49:11;49.60;;;30.20;;
35056;SDS011;21241;51.828;19.574;2023-08-30T06:51:39;51.00;;;30.40;;
35056;SDS011;21241;51.828;19.574;2023-08-30T06:54:07;53.20;;;30.00;;
35056;SDS011;21241;51.828;19.574;2023-08-30T06:56:34;46.60;;;29.10;;
35056;SDS011;21241;51.828;19.574;2023-08-30T06:59:02;41.90;;;27.40;;
35056;SDS011;21241;51.828;19.574;2023-08-30T07:01:30;43.10;;;29.40;;
35056;SDS011;21241;51.828;19.574;2023-08-30T07:04:02;44.20;;;27.30;;
35056;SDS011;21241;51.828;19.574;2023-08-30T07:06:31;45.00;;;27.90;;
35056;SDS011;21241;51.828;19.574;2023-08-30T07:08:58;44.00;;;28.00;;
35056;SDS011;21241;51.828;19.574;2023-08-30T07:11:27;48.00;;;28.30;;
35056;SDS011;21241;51.828;19.574;2023-08-30T07:14:01;40.00;;;26.50;;
35056;SDS011;21241;51.828;19.574;2023-08-30T07:16:29;46.00;;;27.60;;
35056;SDS011;21241;51.828;19.574;2023-08-30T07:18:59;41.40;;;26.00;;
35056;SDS011;21241;51.828;19.574;2023-08-30T07:21:27;40.10;;;25.70;;
35056;SDS011;21241;51.828;19.574;2023-08-30T07:23:55;39.10;;;25.00;;
35056;SDS011;21241;51.828;19.574;2023-08-30T07:26:23;41.40;;;26.00;;
35056;SDS011;21241;51.828;19.574;2023-08-30T07:28:51;39.20;;;26.00;;
35056;SDS011;21241;51.828;19.574;2023-08-30T07:31:19;37.40;;;25.10;;
35056;SDS011;21241;51.828;19.574;2023-08-30T07:33:47;34.60;;;23.90;;
35056;SDS011;21241;51.828;19.574;2023-08-30T07:36:15;34.40;;;23.00;;
35056;SDS011;21241;51.828;19.574;2023-08-30T07:38:43;37.60;;;23.80;;
35056;SDS011;21241;51.828;19.574;2023-08-30T07:41:10;32.60;;;22.40;;
35056;SDS011;21241;51.828;19.574;2023-08-30T07:43:39;31.80;;;23.70;;
35056;SDS011;21241;51.828;19.574;2023-08-30T07:46:07;33.80;;;23.90;;
35056;SDS011;21241;51.828;19.574;2023-08-30T07:48:35;31.60;;;22.80;;
35056;SDS011;21241;51.828;19.574;2023-08-30T07:51:03;30.30;;;21.70;;
35056;SDS011;21241;51.828;19.574;2023-08-30T07:53:32;28.30;;;20.90;;
35056;SDS011;21241;51.828;19.574;2023-08-30T07:56:00;27.80;;;20.50;;
35056;SDS011;21241;51.828;19.574;2023-08-30T07:58:27;27.10;;;19.90;;
35056;SDS011;21241;51.828;19.574;2023-08-30T08:00:55;28.10;;;20.90;;
35056;SDS011;21241;51.828;19.574;2023-08-30T08:03:23;29.50;;;18.50;;
35056;SDS011;21241;51.828;19.574;2023-08-30T08:05:51;21.90;;;18.00;;
35056;SDS011;21241;51.828;19.574;2023-08-30T08:08:19;19.10;;;16.40;;
35056;SDS011;21241;51.828;19.574;2023-08-30T08:10:47;19.40;;;16.70;;
35056;SDS011;21241;51.828;19.574;2023-08-30T08:13:15;18.30;;;16.40;;
35056;SDS011;21241;51.828;19.574;2023-08-30T08:15:43;18.80;;;15.70;;
35056;SDS011;21241;51.828;19.574;2023-08-30T08:18:11;19.80;;;16.20;;
35056;SDS011;21241;51.828;19.574;2023-08-30T08:20:40;19.00;;;16.70;;
35056;SDS011;21241;51.828;19.574;2023-08-30T08:23:08;20.70;;;17.10;;
35056;SDS011;21241;51.828;19.574;2023-08-30T08:25:36;19.70;;;17.20;;
35056;SDS011;21241;51.828;19.574;2023-08-30T08:28:04;19.80;;;15.70;;
35056;SDS011;21241;51.828;19.574;2023-08-30T08:30:32;19.30;;;15.90;;
35056;SDS011;21241;51.828;19.574;2023-08-30T08:33:00;17.90;;;15.30;;
35056;SDS011;21241;51.828;19.574;2023-08-30T08:35:28;17.70;;;15.40;;
35056;SDS011;21241;51.828;19.574;2023-08-30T08:37:56;17.60;;;15.20;;
35056;SDS011;21241;51.828;19.574;2023-08-30T08:40:24;17.70;;;15.70;;
35056;SDS011;21241;51.828;19.574;2023-08-30T08:43:09;17.10;;;15.30;;
35056;SDS011;21241;51.828;19.574;2023-08-30T08:45:39;16.90;;;15.20;;
35056;SDS011;21241;51.828;19.574;2023-08-30T08:48:07;18.20;;;16.10;;
35056;SDS011;21241;51.828;19.574;2023-08-30T08:50:36;17.10;;;15.20;;
35056;SDS011;21241;51.828;19.574;2023-08-30T08:53:04;17.50;;;15.70;;
35056;SDS011;21241;51.828;19.574;2023-08-30T08:55:32;16.40;;;14.70;;
35056;SDS011;21241;51.828;19.574;2023-08-30T08:58:02;17.30;;;15.40;;
35056;SDS011;21241;51.828;19.574;2023-08-30T09:00:31;17.00;;;15.20;;
35056;SDS011;21241;51.828;19.574;2023-08-30T09:02:59;17.50;;;15.70;;
35056;SDS011;21241;51.828;19.574;2023-08-30T09:05:28;18.40;;;16.50;;
35056;SDS011;21241;51.828;19.574;2023-08-30T09:07:57;19.30;;;17.20;;
35056;SDS011;21241;51.828;19.574;2023-08-30T09:10:25;18.20;;;16.40;;
35056;SDS011;21241;51.828;19.574;2023-08-30T09:12:53;19.20;;;16.80;;
35056;SDS011;21241;51.828;19.574;2023-08-30T09:15:21;18.10;;;16.20;;
35056;SDS011;21241;51.828;19.574;2023-08-30T09:17:50;18.30;;;16.60;;
35056;SDS011;21241;51.828;19.574;2023-08-30T09:20:18;16.80;;;15.10;;
35056;SDS011;21241;51.828;19.574;2023-08-30T09:22:48;16.30;;;14.80;;
35056;SDS011;21241;51.828;19.574;2023-08-30T09:25:24;15.20;;;13.80;;
35056;SDS011;21241;51.828;19.574;2023-08-30T09:27:58;16.00;;;14.60;;
35056;SDS011;21241;51.828;19.574;2023-08-30T09:30:27;14.40;;;13.00;;
35056;SDS011;21241;51.828;19.574;2023-08-30T09:33:00;14.50;;;13.10;;
35056;SDS011;21241;51.828;19.574;2023-08-30T09:35:30;15.40;;;14.00;;
35056;SDS011;21241;51.828;19.574;2023-08-30T09:37:59;14.00;;;12.80;;
35056;SDS011;21241;51.828;19.574;2023-08-30T09:40:27;15.00;;;13.70;;
35056;SDS011;21241;51.828;19.574;2023-08-30T09:42:54;15.00;;;13.60;;
35056;SDS011;21241;51.828;19.574;2023-08-30T09:45:40;15.10;;;13.70;;
35056;SDS011;21241;51.828;19.574;2023-08-30T09:48:09;14.90;;;13.60;;
35056;SDS011;21241;51.828;19.574;2023-08-30T09:50:37;13.80;;;12.50;;
35056;SDS011;21241;51.828;19.574;2023-08-30T09:53:07;14.30;;;12.90;;
35056;SDS011;21241;51.828;19.574;2023-08-30T09:55:38;13.30;;;12.10;;
35056;SDS011;21241;51.828;19.574;2023-08-30T09:58:06;11.60;;;10.60;;
35056;SDS011;21241;51.828;19.574;2023-08-30T10:00:34;9.60;;;8.70;;
35056;SDS011;21241;51.828;19.574;2023-08-30T10:03:02;10.40;;;9.60;;
35056;SDS011;21241;51.828;19.574;2023-08-30T10:05:50;10.40;;;9.60;;
35056;SDS011;21241;51.828;19.574;2023-08-30T10:08:19;10.10;;;9.20;;
35056;SDS011;21241;51.828;19.574;2023-08-30T10:10:47;9.90;;;9.10;;
35056;SDS011;21241;51.828;19.574;2023-08-30T10:13:16;11.40;;;10.40;;
35056;SDS011;21241;51.828;19.574;2023-08-30T10:15:45;12.60;;;11.30;;
35056;SDS011;21241;51.828;19.574;2023-08-30T10:18:15;12.90;;;10.90;;
35056;SDS011;21241;51.828;19.574;2023-08-30T10:20:47;12.20;;;11.00;;
35056;SDS011;21241;51.828;19.574;2023-08-30T10:23:15;11.40;;;10.40;;
35056;SDS011;21241;51.828;19.574;2023-08-30T10:25:44;11.60;;;10.50;;
35056;SDS011;21241;51.828;19.574;2023-08-30T10:28:16;11.00;;;9.90;;
35056;SDS011;21241;51.828;19.574;2023-08-30T10:30:44;11.40;;;10.30;;
35056;SDS011;21241;51.828;19.574;2023-08-30T10:33:13;12.50;;;11.10;;
35056;SDS011;21241;51.828;19.574;2023-08-30T10:35:48;11.50;;;10.30;;
35056;SDS011;21241;51.828;19.574;2023-08-30T10:38:28;11.90;;;10.70;;
35056;SDS011;21241;51.828;19.574;2023-08-30T10:41:05;11.40;;;9.80;;
35056;SDS011;21241;51.828;19.574;2023-08-30T10:43:35;10.10;;;9.10;;
35056;SDS011;21241;51.828;19.574;2023-08-30T10:46:04;9.30;;;8.40;;
35056;SDS011;21241;51.828;19.574;2023-08-30T10:48:39;9.10;;;8.20;;
35056;SDS011;21241;51.828;19.574;2023-08-30T10:51:19;8.10;;;7.30;;
35056;SDS011;21241;51.828;19.574;2023-08-30T10:53:55;7.80;;;7.20;;
35056;SDS011;21241;51.828;19.574;2023-08-30T10:56:27;8.60;;;7.90;;
35056;SDS011;21241;51.828;19.574;2023-08-30T10:58:56;8.30;;;7.60;;
35056;SDS011;21241;51.828;19.574;2023-08-30T11:01:24;7.50;;;6.80;;
35056;SDS011;21241;51.828;19.574;2023-08-30T11:03:52;8.10;;;7.40;;
35056;SDS011;21241;51.828;19.574;2023-08-30T11:06:32;8.90;;;8.20;;
35056;SDS011;21241;51.828;19.574;2023-08-30T11:09:00;8.10;;;7.40;;
35056;SDS011;21241;51.828;19.574;2023-08-30T11:11:28;8.90;;;8.00;;
35056;SDS011;21241;51.828;19.574;2023-08-30T11:14:03;8.90;;;8.20;;
35056;SDS011;21241;51.828;19.574;2023-08-30T11:16:33;9.50;;;8.50;;
35056;SDS011;21241;51.828;19.574;2023-08-30T11:19:02;10.20;;;9.30;;
35056;SDS011;21241;51.828;19.574;2023-08-30T11:21:31;9.50;;;8.70;;
35056;SDS011;21241;51.828;19.574;2023-08-30T11:24:00;10.30;;;9.20;;
35056;SDS011;21241;51.828;19.574;2023-08-30T11:26:28;9.80;;;8.70;;
35056;SDS011;21241;51.828;19.574;2023-08-30T11:28:57;12.30;;;10.20;;
35056;SDS011;21241;51.828;19.574;2023-08-30T11:31:25;10.80;;;9.70;;
35056;SDS011;21241;51.828;19.574;2023-08-30T11:33:57;11.70;;;10.50;;
35056;SDS011;21241;51.828;19.574;2023-08-30T11:36:26;12.80;;;11.40;;
35056;SDS011;21241;51.828;19.574;2023-08-30T11:38:55;11.80;;;10.60;;
35056;SDS011;21241;51.828;19.574;2023-08-30T11:41:24;12.70;;;11.50;;
35056;SDS011;21241;51.828;19.574;2023-08-30T11:43:53;13.20;;;11.40;;
35056;SDS011;21241;51.828;19.574;2023-08-30T11:46:22;13.00;;;11.70;;
35056;SDS011;21241;51.828;19.574;2023-08-30T11:48:50;13.20;;;11.80;;
35056;SDS011;21241;51.828;19.574;2023-08-30T11:51:18;12.20;;;11.00;;
35056;SDS011;21241;51.828;19.574;2023-08-30T11:53:46;12.20;;;11.10;;
35056;SDS011;21241;51.828;19.574;2023-08-30T11:56:14;12.00;;;10.90;;
35056;SDS011;21241;51.828;19.574;2023-08-30T11:58:44;12.80;;;11.60;;
35056;SDS011;21241;51.828;19.574;2023-08-30T12:01:12;11.50;;;10.50;;
35056;SDS011;21241;51.828;19.574;2023-08-30T12:03:41;12.80;;;11.70;;
35056;SDS011;21241;51.828;19.574;2023-08-30T12:06:09;11.90;;;10.80;;
35056;SDS011;21241;51.828;19.574;2023-08-30T12:08:40;11.80;;;10.70;;
35056;SDS011;21241;51.828;19.574;2023-08-30T12:11:17;12.20;;;11.10;;
35056;SDS011;21241;51.828;19.574;2023-08-30T12:13:48;12.80;;;11.60;;
35056;SDS011;21241;51.828;19.574;2023-08-30T12:16:16;13.20;;;11.80;;
35056;SDS011;21241;51.828;19.574;2023-08-30T12:18:45;12.00;;;10.90;;
35056;SDS011;21241;51.828;19.574;2023-08-30T12:21:13;12.20;;;11.10;;
35056;SDS011;21241;51.828;19.574;2023-08-30T12:23:42;11.90;;;10.80;;
35056;SDS011;21241;51.828;19.574;2023-08-30T12:26:10;12.30;;;11.30;;
35056;SDS011;21241;51.828;19.574;2023-08-30T12:28:39;11.30;;;10.40;;
35056;SDS011;21241;51.828;19.574;2023-08-30T12:31:07;13.00;;;11.90;;
35056;SDS011;21241;51.828;19.574;2023-08-30T12:33:36;12.70;;;11.60;;
35056;SDS011;21241;51.828;19.574;2023-08-30T12:36:04;13.10;;;12.00;;
35056;SDS011;21241;51.828;19.574;2023-08-30T12:38:32;12.90;;;11.80;;
35056;SDS011;21241;51.828;19.574;2023-08-30T12:41:01;14.00;;;12.60;;
35056;SDS011;21241;51.828;19.574;2023-08-30T12:43:28;13.00;;;11.90;;
35056;SDS011;21241;51.828;19.574;2023-08-30T12:45:56;14.20;;;13.00;;
35056;SDS011;21241;51.828;19.574;2023-08-30T12:48:24;14.00;;;12.90;;
35056;SDS011;21241;51.828;19.574;2023-08-30T12:50:52;14.00;;;12.80;;
35056;SDS011;21241;51.828;19.574;2023-08-30T12:53:20;13.80;;;12.60;;
35056;SDS011;21241;51.828;19.574;2023-08-30T12:55:48;12.90;;;11.90;;
35056;SDS011;21241;51.828;19.574;2023-08-30T12:58:16;12.80;;;11.70;;
35056;SDS011;21241;51.828;19.574;2023-08-30T13:00:43;13.60;;;12.40;;
35056;SDS011;21241;51.828;19.574;2023-08-30T13:03:11;13.10;;;12.00;;
35056;SDS011;21241;51.828;19.574;2023-08-30T13:05:39;13.50;;;12.40;;
35056;SDS011;21241;51.828;19.574;2023-08-30T13:08:07;13.60;;;12.50;;
35056;SDS011;21241;51.828;19.574;2023-08-30T13:10:35;13.50;;;12.40;;
35056;SDS011;21241;51.828;19.574;2023-08-30T13:13:03;14.50;;;13.20;;
35056;SDS011;21241;51.828;19.574;2023-08-30T13:15:30;14.00;;;12.80;;
35056;SDS011;21241;51.828;19.574;2023-08-30T13:17:58;13.00;;;12.00;;
35056;SDS011;21241;51.828;19.574;2023-08-30T13:20:26;12.20;;;11.30;;
35056;SDS011;21241;51.828;19.574;2023-08-30T13:22:54;12.60;;;11.50;;
35056;SDS011;21241;51.828;19.574;2023-08-30T13:25:22;11.70;;;10.70;;
35056;SDS011;21241;51.828;19.574;2023-08-30T13:27:49;11.60;;;10.70;;
35056;SDS011;21241;51.828;19.574;2023-08-30T13:30:18;11.70;;;10.90;;
35056;SDS011;21241;51.828;19.574;2023-08-30T13:32:45;10.10;;;9.30;;
35056;SDS011;21241;51.828;19.574;2023-08-30T13:35:13;10.80;;;10.10;;
35056;SDS011;21241;51.828;19.574;2023-08-30T13:37:41;9.70;;;9.00;;
35056;SDS011;21241;51.828;19.574;2023-08-30T13:40:09;10.40;;;9.60;;
35056;SDS011;21241;51.828;19.574;2023-08-30T13:42:37;10.10;;;9.40;;
35056;SDS011;21241;51.828;19.574;2023-08-30T13:45:05;8.90;;;8.30;;
35056;SDS011;21241;51.828;19.574;2023-08-30T13:47:34;10.50;;;9.70;;
35056;SDS011;21241;51.828;19.574;2023-08-30T13:50:01;10.00;;;9.40;;
35056;SDS011;21241;51.828;19.574;2023-08-30T13:52:31;10.70;;;9.90;;
35056;SDS011;21241;51.828;19.574;2023-08-30T13:55:00;11.00;;;10.20;;
35056;SDS011;21241;51.828;19.574;2023-08-30T13:57:28;10.20;;;9.40;;
35056;SDS011;21241;51.828;19.574;2023-08-30T13:59:56;11.70;;;10.80;;
35056;SDS011;21241;51.828;19.574;2023-08-30T14:02:24;13.10;;;12.00;;
35056;SDS011;21241;51.828;19.574;2023-08-30T14:04:52;12.30;;;11.30;;
35056;SDS011;21241;51.828;19.574;2023-08-30T14:07:20;14.40;;;13.20;;
35056;SDS011;21241;51.828;19.574;2023-08-30T14:09:48;13.90;;;12.70;;
35056;SDS011;21241;51.828;19.574;2023-08-30T14:12:16;15.60;;;14.30;;
35056;SDS011;21241;51.828;19.574;2023-08-30T14:14:43;17.10;;;15.60;;
35056;SDS011;21241;51.828;19.574;2023-08-30T14:17:11;16.90;;;15.50;;
35056;SDS011;21241;51.828;19.574;2023-08-30T14:19:39;15.90;;;14.50;;
35056;SDS011;21241;51.828;19.574;2023-08-30T14:22:07;15.70;;;14.40;;
35056;SDS011;21241;51.828;19.574;2023-08-30T14:24:34;15.20;;;13.90;;